Time,TemperatureF,DewpointF,PressureIn,WindDirection,WindDirectionDegrees,WindSpeedMPH,WindSpeedGustMPH,Humidity,HourlyPrecipIn,Conditions,Clouds,dailyrainin,SoftwareType,DateUTC
2013-02-21 00:10:00,19.0,-99.9,-100.00,East,94,5.0,6.0,-999,-99.99,,,-99.99,,2013-02-21 06:10:00,
2013-02-21 00:40:00,18.0,-99.9,-100.00,East,85,6.0,8.0,-999,-99.99,,,0.00,,2013-02-21 06:40:00,
2013-02-21 01:10:00,18.0,-99.9,-100.00,East,84,4.0,5.0,-999,0.00,,,0.00,,2013-02-21 07:10:00,
2013-02-21 01:32:00,18.0,-99.9,-100.00,East,85,6.0,8.0,-999,-99.99,,,0.00,,2013-02-21 07:32:00,
2013-02-21 02:02:00,18.0,-99.9,-100.00,East,84,4.0,5.0,-999,0.00,,,0.00,,2013-02-21 08:02:00,
2013-02-21 02:40:00,15.0,-99.9,-100.00,ENE,76,0.0,1.0,-999,0.00,,,0.00,,2013-02-21 08:40:00,
2013-02-21 03:10:00,15.0,-99.9,-100.00,NE,34,0.0,0.0,-999,0.00,,,0.00,,2013-02-21 09:10:00,
2013-02-21 05:40:00,14.0,-99.9,-100.00,NE,49,1.0,2.0,-999,0.00,,,-99.99,,2013-02-21 11:40:00,
2013-02-21 06:10:00,14.0,-99.9,-100.00,ENE,71,4.0,5.0,-999,0.00,,,0.00,,2013-02-21 12:10:00,
2013-02-21 07:02:00,14.0,-99.9,-100.00,ENE,71,4.0,5.0,-999,0.00,,,0.00,,2013-02-21 13:02:00,
2013-02-21 07:22:00,15.0,-99.9,-100.00,ENE,77,3.0,5.0,-999,0.00,,,0.00,,2013-02-21 13:22:00,
2013-02-21 07:32:00,15.0,-99.9,-100.00,ENE,77,3.0,5.0,-999,0.00,,,0.00,,2013-02-21 13:32:00,
2013-02-21 07:42:00,17.0,-99.9,-100.00,East,101,4.0,6.0,-999,0.00,,,-99.99,,2013-02-21 13:42:00,
2013-02-21 07:52:00,17.0,-99.9,-100.00,East,101,4.0,6.0,-999,0.00,,,-99.99,,2013-02-21 13:52:00,
2013-02-21 08:02:00,17.0,-99.9,-100.00,East,101,4.0,6.0,-999,0.00,,,-99.99,,2013-02-21 14:02:00,
2013-02-21 08:11:00,18.0,-99.9,-100.00,ESE,115,6.0,8.0,-999,0.00,,,0.00,,2013-02-21 14:11:00,
2013-02-21 08:22:00,18.0,-99.9,-100.00,ESE,115,6.0,8.0,-999,0.00,,,0.00,,2013-02-21 14:22:00,
2013-02-21 08:32:00,18.0,-99.9,-100.00,ESE,115,6.0,8.0,-999,0.00,,,0.00,,2013-02-21 14:32:00,
2013-02-21 08:42:00,18.0,-99.9,-100.00,East,80,6.0,7.0,-999,0.00,,,0.00,,2013-02-21 14:42:00,
2013-02-21 08:52:00,18.0,-99.9,-100.00,East,80,6.0,7.0,-999,0.00,,,0.00,,2013-02-21 14:52:00,
2013-02-21 09:02:00,18.0,-99.9,-100.00,East,80,6.0,7.0,-999,0.00,,,0.00,,2013-02-21 15:02:00,
2013-02-21 09:12:00,19.0,-99.9,-100.00,ESE,107,8.0,12.0,-999,0.00,,,0.00,,2013-02-21 15:12:00,
2013-02-21 09:22:00,19.0,-99.9,-100.00,ESE,107,8.0,12.0,-999,0.00,,,0.00,,2013-02-21 15:22:00,
2013-02-21 09:32:00,20.0,-99.9,-100.00,East,98,9.0,13.0,-999,0.00,,,0.00,,2013-02-21 15:32:00,
2013-02-21 09:42:00,20.0,-99.9,-100.00,East,98,9.0,13.0,-999,0.00,,,0.00,,2013-02-21 15:42:00,
2013-02-21 09:52:00,20.0,-99.9,-100.00,East,98,9.0,13.0,-999,0.00,,,0.00,,2013-02-21 15:52:00,
2013-02-21 10:02:00,20.0,-99.9,-100.00,East,98,9.0,13.0,-999,0.00,,,0.00,,2013-02-21 16:02:00,
2013-02-21 10:12:00,21.0,-99.9,-100.00,ESE,104,9.0,13.0,-999,0.00,,,0.00,,2013-02-21 16:12:00,
2013-02-21 10:22:00,21.0,-99.9,-100.00,ESE,104,9.0,13.0,-999,0.00,,,0.00,,2013-02-21 16:22:00,
2013-02-21 10:32:00,21.0,-99.9,-100.00,ESE,104,9.0,13.0,-999,0.00,,,0.00,,2013-02-21 16:32:00,
2013-02-21 10:42:00,22.0,-99.9,-100.00,East,94,10.0,12.0,-999,0.00,,,0.00,,2013-02-21 16:42:00,
2013-02-21 10:52:00,22.0,-99.9,-100.00,East,94,10.0,12.0,-999,0.00,,,0.00,,2013-02-21 16:52:00,
2013-02-21 11:02:00,22.0,-99.9,-100.00,East,94,10.0,12.0,-999,0.00,,,0.00,,2013-02-21 17:02:00,
2013-02-21 11:12:00,23.0,-99.9,-100.00,East,95,11.0,16.0,-999,0.00,,,0.00,,2013-02-21 17:12:00,
2013-02-21 11:22:00,23.0,-99.9,-100.00,East,95,11.0,16.0,-999,0.00,,,0.00,,2013-02-21 17:22:00,
2013-02-21 11:32:00,23.0,-99.9,-100.00,East,95,11.0,16.0,-999,0.00,,,0.00,,2013-02-21 17:32:00,
2013-02-21 11:40:00,25.0,-99.9,-100.00,East,86,10.0,19.0,-999,0.00,,,0.00,,2013-02-21 17:40:00,
2013-02-21 11:42:00,25.0,-99.9,-100.00,ENE,77,8.0,10.0,-999,0.00,,,0.00,,2013-02-21 17:42:00,
2013-02-21 11:52:00,25.0,-99.9,-100.00,ENE,77,8.0,10.0,-999,0.00,,,0.00,,2013-02-21 17:52:00,
2013-02-21 12:02:00,25.0,-99.9,-100.00,ENE,77,8.0,10.0,-999,0.00,,,0.00,,2013-02-21 18:02:00,
2013-02-21 12:12:00,25.0,-99.9,-100.00,East,86,10.0,19.0,-999,0.00,,,0.00,,2013-02-21 18:12:00,
2013-02-21 12:22:00,25.0,-99.9,-100.00,East,86,10.0,19.0,-999,0.00,,,0.00,,2013-02-21 18:22:00,
2013-02-21 12:32:00,25.0,-99.9,-100.00,East,86,10.0,19.0,-999,0.00,,,0.00,,2013-02-21 18:32:00,
2013-02-21 13:10:00,26.0,-99.9,-100.00,East,93,11.0,13.0,-999,0.00,,,0.00,,2013-02-21 19:10:00,
2013-02-21 13:12:00,26.0,-99.9,-100.00,East,86,11.0,13.0,-999,0.00,,,0.00,,2013-02-21 19:12:00,
2013-02-21 13:22:00,26.0,-99.9,-100.00,East,86,11.0,13.0,-999,0.00,,,0.00,,2013-02-21 19:22:00,
2013-02-21 13:32:00,26.0,-99.9,-100.00,East,86,11.0,13.0,-999,0.00,,,0.00,,2013-02-21 19:32:00,
2013-02-21 13:42:00,26.0,-99.9,-100.00,East,93,11.0,13.0,-999,0.00,,,0.00,,2013-02-21 19:42:00,
2013-02-21 13:52:00,26.0,-99.9,-100.00,East,93,11.0,13.0,-999,0.00,,,0.00,,2013-02-21 19:52:00,
2013-02-21 14:01:00,26.0,-99.9,-100.00,East,93,11.0,13.0,-999,0.00,,,0.00,,2013-02-21 20:01:00,
2013-02-21 14:22:00,27.0,-99.9,-100.00,East,94,10.0,14.0,-999,0.00,,,0.00,,2013-02-21 20:22:00,
2013-02-21 14:32:00,27.0,-99.9,-100.00,East,94,10.0,14.0,-999,0.00,,,0.00,,2013-02-21 20:32:00,
2013-02-21 14:42:00,27.0,-99.9,-100.00,East,79,9.0,12.0,-999,0.00,,,0.00,,2013-02-21 20:42:00,
2013-02-21 14:53:00,27.0,-99.9,-100.00,East,79,9.0,12.0,-999,0.00,,,0.00,,2013-02-21 20:53:00,
2013-02-21 15:02:00,27.0,-99.9,-100.00,East,79,9.0,12.0,-999,0.00,,,0.00,,2013-02-21 21:02:00,
2013-02-21 15:12:00,29.0,-99.9,-100.00,East,90,11.0,14.0,-999,0.00,,,0.00,,2013-02-21 21:12:00,
2013-02-21 15:22:00,29.0,-99.9,-100.00,East,90,11.0,14.0,-999,0.00,,,0.00,,2013-02-21 21:22:00,
2013-02-21 15:32:00,29.0,-99.9,-100.00,East,90,11.0,14.0,-999,0.00,,,0.00,,2013-02-21 21:32:00,
2013-02-21 15:42:00,29.0,-99.9,-100.00,East,95,13.0,18.0,-999,0.00,,,0.00,,2013-02-21 21:42:00,
2013-02-21 15:52:00,29.0,-99.9,-100.00,East,95,13.0,18.0,-999,0.00,,,0.00,,2013-02-21 21:52:00,
2013-02-21 16:02:00,29.0,-99.9,-100.00,East,95,13.0,18.0,-999,0.00,,,0.00,,2013-02-21 22:02:00,
2013-02-21 16:11:00,29.0,-99.9,-100.00,East,90,14.0,18.0,-999,0.00,,,0.00,,2013-02-21 22:11:00,
2013-02-21 16:22:00,29.0,-99.9,-100.00,East,90,14.0,18.0,-999,0.00,,,0.00,,2013-02-21 22:22:00,
2013-02-21 16:32:00,29.0,-99.9,-100.00,East,90,14.0,18.0,-999,0.00,,,0.00,,2013-02-21 22:32:00,
2013-02-21 16:42:00,29.0,-99.9,-100.00,East,98,11.0,17.0,-999,0.00,,,0.00,,2013-02-21 22:42:00,
2013-02-21 16:52:00,29.0,-99.9,-100.00,East,98,11.0,17.0,-999,0.00,,,0.00,,2013-02-21 22:52:00,
2013-02-21 17:02:00,29.0,-99.9,-100.00,East,98,11.0,17.0,-999,0.00,,,0.00,,2013-02-21 23:02:00,
2013-02-21 17:11:00,28.0,-99.9,-100.00,East,85,9.0,12.0,-999,0.00,,,0.00,,2013-02-21 23:11:00,
2013-02-21 17:22:00,28.0,-99.9,-100.00,East,85,9.0,12.0,-999,0.00,,,0.00,,2013-02-21 23:22:00,
2013-02-21 17:32:00,28.0,-99.9,-100.00,East,85,9.0,12.0,-999,0.00,,,0.00,,2013-02-21 23:32:00,
2013-02-21 17:42:00,28.0,-99.9,-100.00,East,80,11.0,13.0,-999,0.00,,,0.00,,2013-02-21 23:42:00,
2013-02-21 17:53:00,28.0,-99.9,-100.00,East,80,11.0,13.0,-999,0.00,,,0.00,,2013-02-21 23:53:00,
2013-02-21 18:02:00,28.0,-99.9,-100.00,East,80,11.0,13.0,-999,0.00,,,0.00,,2013-02-22 00:02:00,
2013-02-21 18:11:00,28.0,-99.9,-100.00,East,81,10.0,13.0,-999,0.00,,,0.00,,2013-02-22 00:11:00,
2013-02-21 18:22:00,28.0,-99.9,-100.00,East,81,10.0,13.0,-999,0.00,,,0.00,,2013-02-22 00:22:00,
2013-02-21 18:32:00,28.0,-99.9,-100.00,East,82,9.0,13.0,-999,0.00,,,0.00,,2013-02-22 00:32:00,
2013-02-21 18:42:00,28.0,-99.9,-100.00,East,82,9.0,13.0,-999,0.00,,,0.00,,2013-02-22 00:42:00,
2013-02-21 18:52:00,28.0,-99.9,-100.00,East,82,9.0,13.0,-999,0.00,,,0.00,,2013-02-22 00:52:00,
2013-02-21 19:01:00,28.0,-99.9,-100.00,East,82,9.0,13.0,-999,0.00,,,0.00,,2013-02-22 01:01:00,
2013-02-21 19:11:00,29.0,-99.9,-100.00,East,79,10.0,12.0,-999,0.00,,,-99.99,,2013-02-22 01:11:00,
2013-02-21 19:22:00,29.0,-99.9,-100.00,East,79,10.0,12.0,-999,0.00,,,-99.99,,2013-02-22 01:22:00,
2013-02-21 19:32:00,29.0,-99.9,-100.00,East,79,10.0,12.0,-999,0.00,,,-99.99,,2013-02-22 01:32:00,
2013-02-21 19:42:00,28.0,-99.9,-100.00,East,85,11.0,15.0,-999,0.00,,,0.00,,2013-02-22 01:42:00,
2013-02-21 19:52:00,28.0,-99.9,-100.00,East,85,11.0,15.0,-999,0.00,,,0.00,,2013-02-22 01:52:00,
2013-02-21 20:02:00,28.0,-99.9,-100.00,East,85,11.0,15.0,-999,0.00,,,0.00,,2013-02-22 02:02:00,
2013-02-21 20:11:00,28.0,-99.9,-100.00,East,87,12.0,13.0,-999,0.00,,,0.00,,2013-02-22 02:11:00,
2013-02-21 20:22:00,28.0,-99.9,-100.00,East,87,12.0,13.0,-999,0.00,,,0.00,,2013-02-22 02:22:00,
2013-02-21 20:32:00,28.0,-99.9,-100.00,East,87,12.0,13.0,-999,0.00,,,0.00,,2013-02-22 02:32:00,
2013-02-21 20:42:00,27.0,-99.9,-100.00,East,92,14.0,18.0,-999,0.00,,,0.00,,2013-02-22 02:42:00,
2013-02-21 20:52:00,27.0,-99.9,-100.00,East,92,14.0,18.0,-999,0.00,,,0.00,,2013-02-22 02:52:00,
2013-02-21 21:02:00,27.0,-99.9,-100.00,East,92,14.0,18.0,-999,0.00,,,0.00,,2013-02-22 03:02:00,
2013-02-21 21:11:00,27.0,-99.9,-100.00,East,98,12.0,17.0,-999,0.00,,,0.00,,2013-02-22 03:11:00,
2013-02-21 21:22:00,27.0,-99.9,-100.00,East,98,12.0,17.0,-999,0.00,,,0.00,,2013-02-22 03:22:00,
2013-02-21 21:32:00,26.0,-99.9,-100.00,East,97,11.0,16.0,-999,0.00,,,0.00,,2013-02-22 03:32:00,
2013-02-21 21:42:00,26.0,-99.9,-100.00,East,97,11.0,16.0,-999,0.00,,,0.00,,2013-02-22 03:42:00,
2013-02-21 21:52:00,26.0,-99.9,-100.00,East,97,11.0,16.0,-999,0.00,,,0.00,,2013-02-22 03:52:00,
2013-02-21 22:02:00,26.0,-99.9,-100.00,East,97,11.0,16.0,-999,0.00,,,0.00,,2013-02-22 04:02:00,
2013-02-21 22:42:00,25.0,-99.9,-100.00,East,93,10.0,14.0,-999,0.00,,,0.00,,2013-02-22 04:42:00,
2013-02-21 22:52:00,25.0,-99.9,-100.00,East,93,10.0,14.0,-999,0.00,,,0.00,,2013-02-22 04:52:00,
2013-02-21 23:02:00,25.0,-99.9,-100.00,East,93,10.0,14.0,-999,0.00,,,0.00,,2013-02-22 05:02:00,
2013-02-21 23:12:00,25.0,-99.9,-100.00,East,94,10.0,12.0,-999,0.00,,,0.00,,2013-02-22 05:12:00,
2013-02-21 23:22:00,25.0,-99.9,-100.00,East,94,10.0,12.0,-999,0.00,,,0.00,,2013-02-22 05:22:00,
2013-02-21 23:32:00,25.0,-99.9,-100.00,East,94,10.0,12.0,-999,0.00,,,0.00,,2013-02-22 05:32:00,
2013-02-21 23:42:00,25.0,-99.9,-100.00,East,90,11.0,15.0,-999,0.00,,,-99.99,,2013-02-22 05:42:00,
2013-02-21 23:52:00,25.0,-99.9,-100.00,East,90,11.0,15.0,-999,0.00,,,-99.99,,2013-02-22 05:52:00,